Time;durP1;ratioP1;P1;durP2;ratioP2;P2;SDS_P1;SDS_P2;PMS_P1;PMS_P2;Temp;Humidity;BMP_temperature;BMP_pressure;BME280_temperature;BME280_humidity;BME280_pressure;Samples;Min_cycle;Max_cycle;Signal;HPM_P1;HPM_P2
2021/12/04 00:00:07;;;;;;;4.05;2.63;;;;;;;2.53;99.09;99387.00;691318;28;1254;-54
2021/12/04 00:00:39;;;;;;;3.95;2.60;;;;;;;2.62;100.00;99388.78;691707;28;1231;-56
2021/12/04 00:01:05;;;;;;;4.68;2.50;;;;;;;2.58;100.00;99392.19;691624;28;5343;-55
2021/12/04 00:01:27;;;;;;;5.40;2.58;;;;;;;2.62;100.00;99387.91;691945;28;1248;-53
2021/12/04 00:01:48;;;;;;;4.65;2.30;;;;;;;2.66;100.00;99385.34;689364;28;1444;-55
2021/12/04 00:02:09;;;;;;;4.53;2.40;;;;;;;2.63;99.76;99387.03;687643;28;1288;-56
2021/12/04 00:02:29;;;;;;;4.13;2.80;;;;;;;2.58;99.91;99387.03;683513;28;1183;-55
2021/12/04 00:02:51;;;;;;;4.18;2.70;;;;;;;2.64;100.00;99386.19;684273;28;1243;-54
2021/12/04 00:03:11;;;;;;;4.93;2.55;;;;;;;2.68;100.00;99382.78;684036;28;1383;-56
2021/12/04 00:03:31;;;;;;;5.77;2.70;;;;;;;2.68;100.00;99382.78;682912;28;2104;-55
2021/12/04 00:03:53;;;;;;;3.87;2.57;;;;;;;2.68;100.00;99388.78;686193;28;3021;-54
2021/12/04 00:04:18;;;;;;;3.90;2.50;;;;;;;2.81;100.00;99383.72;688778;28;4459;-54
2021/12/04 00:04:42;;;;;;;4.25;2.60;;;;;;;2.80;99.17;99382.00;691649;28;1438;-56
2021/12/04 00:05:05;;;;;;;4.25;2.45;;;;;;;2.73;98.76;99373.38;692994;28;1246;-54
2021/12/04 00:05:25;;;;;;;4.05;2.50;;;;;;;2.67;98.93;99379.34;692187;28;1405;-54
2021/12/04 00:05:54;;;;;;;4.37;2.60;;;;;;;2.63;99.71;99376.72;690221;28;1475;-54
2021/12/04 00:06:44;;;;;;;4.50;2.72;;;;;;;2.55;100.00;99376.69;689575;28;1978;-55
2021/12/04 00:07:07;;;;;;;5.70;2.63;;;;;;;2.65;100.00;99377.63;689653;28;4441;-55
2021/12/04 00:07:29;;;;;;;4.22;2.42;;;;;;;2.78;100.00;99373.38;690038;28;1104;-57
2021/12/04 00:07:50;;;;;;;5.57;2.75;;;;;;;2.69;100.00;99364.72;692488;28;1179;-53
2021/12/04 00:08:10;;;;;;;4.17;2.60;;;;;;;2.65;99.82;99367.28;692070;28;1356;-56
2021/12/04 00:08:33;;;;;;;4.35;2.45;;;;;;;2.72;100.00;99375.06;692699;28;1168;-55
2021/12/04 00:08:56;;;;;;;4.57;2.33;;;;;;;2.70;100.00;99374.22;693110;28;1358;-56
2021/12/04 00:09:18;;;;;;;3.70;2.30;;;;;;;2.64;100.00;99375.88;693084;28;1043;-54
2021/12/04 00:09:38;;;;;;;4.05;2.45;;;;;;;2.67;100.00;99379.34;691532;28;3255;-54
2021/12/04 00:10:03;;;;;;;4.30;2.55;;;;;;;2.79;100.00;99372.53;691814;28;4648;-54
2021/12/04 00:10:28;;;;;;;4.07;2.42;;;;;;;2.75;99.95;99373.38;692031;28;1192;-55
2021/12/04 00:10:48;;;;;;;3.60;2.20;;;;;;;2.70;100.00;99366.47;691683;28;1194;-54
2021/12/04 00:11:09;;;;;;;4.05;2.58;;;;;;;2.65;100.00;99375.88;692598;28;1166;-55
2021/12/04 00:11:30;;;;;;;4.20;2.60;;;;;;;2.68;100.00;99373.31;692169;28;1135;-53
2021/12/04 00:11:54;;;;;;;4.60;2.60;;;;;;;2.67;100.00;99363.88;692343;28;2811;-53
2021/12/04 00:12:15;;;;;;;4.80;2.60;;;;;;;2.60;100.00;99374.13;691975;28;3072;-56
2021/12/04 00:12:35;;;;;;;4.80;2.50;;;;;;;2.68;100.00;99367.31;691843;28;3373;-54
2021/12/04 00:12:56;;;;;;;4.68;2.50;;;;;;;2.66;100.00;99369.00;691568;28;4568;-56
2021/12/04 00:13:16;;;;;;;4.80;2.55;;;;;;;2.62;99.94;99372.44;691877;28;1141;-57
2021/12/04 00:13:37;;;;;;;4.80;2.43;;;;;;;2.66;100.00;99364.72;691625;28;1119;-54
2021/12/04 00:13:57;;;;;;;5.23;2.60;;;;;;;2.62;100.00;99370.72;693321;28;1295;-52
2021/12/04 00:14:19;;;;;;;4.47;2.80;;;;;;;2.55;100.00;99369.78;691642;28;1071;-53
2021/12/04 00:14:41;;;;;;;4.80;2.70;;;;;;;2.51;100.00;99370.63;691920;28;1079;-53
2021/12/04 00:15:02;;;;;;;4.32;2.70;;;;;;;2.50;100.00;99368.03;691748;28;1930;-55
2021/12/04 00:15:22;;;;;;;4.25;2.65;;;;;;;2.47;100.00;99368.03;691871;28;3357;-57
2021/12/04 00:15:43;;;;;;;4.75;2.80;;;;;;;2.49;100.00;99363.72;691989;28;1354;-55
2021/12/04 00:16:03;;;;;;;4.73;2.73;;;;;;;2.65;100.00;99362.13;691433;28;4655;-55
2021/12/04 00:16:24;;;;;;;4.25;2.65;;;;;;;2.59;100.00;99368.13;690072;28;1472;-55
2021/12/04 00:16:45;;;;;;;5.07;2.60;;;;;;;2.57;100.00;99367.22;690097;28;1222;-54
2021/12/04 00:17:06;;;;;;;4.57;2.60;;;;;;;2.59;100.00;99368.13;689419;28;1187;-55
2021/12/04 00:17:27;;;;;;;4.60;2.60;;;;;;;2.64;100.00;99366.41;689607;28;1405;-53
2021/12/04 00:17:47;;;;;;;3.92;2.53;;;;;;;2.64;100.00;99365.56;689224;28;1127;-53
2021/12/04 00:18:08;;;;;;;3.97;2.57;;;;;;;2.70;100.00;99366.47;689048;28;3486;-54
2021/12/04 00:18:28;;;;;;;4.00;2.70;;;;;;;2.68;100.00;99368.16;691616;28;1164;-56
2021/12/04 00:18:49;;;;;;;4.10;2.70;;;;;;;2.75;100.00;99365.63;692304;28;1382;-58
2021/12/04 00:19:09;;;;;;;4.15;2.70;;;;;;;2.71;99.93;99363.03;691610;28;4768;-54
2021/12/04 00:19:30;;;;;;;4.30;2.70;;;;;;;2.77;100.00;99364.78;690517;28;1114;-54
2021/12/04 00:19:51;;;;;;;4.07;2.60;;;;;;;2.86;100.00;99362.25;693061;28;1368;-54
2021/12/04 00:20:12;;;;;;;4.22;2.40;;;;;;;2.79;99.96;99363.06;692399;28;1236;-54
2021/12/04 00:20:32;;;;;;;4.65;2.63;;;;;;;2.73;100.00;99361.31;690367;28;1132;-56
2021/12/04 00:20:53;;;;;;;4.78;2.72;;;;;;;2.70;100.00;99357.84;691748;28;3074;-56
2021/12/04 00:21:13;;;;;;;4.73;2.60;;;;;;;2.65;100.00;99355.25;690493;28;4897;-56
2021/12/04 00:21:34;;;;;;;4.68;2.75;;;;;;;2.61;99.78;99360.38;692730;28;1361;-54
2021/12/04 00:21:57;;;;;;;5.23;2.90;;;;;;;2.61;100.00;99355.22;691282;28;1399;-56
2021/12/04 00:22:18;;;;;;;4.55;2.80;;;;;;;2.61;100.00;99358.66;691829;28;4766;-54
2021/12/04 00:22:38;;;;;;;4.60;2.70;;;;;;;2.68;100.00;99355.25;691446;28;1115;-58
2021/12/04 00:22:59;;;;;;;4.60;2.50;;;;;;;2.63;100.00;99349.22;688461;28;1242;-55
2021/12/04 00:23:20;;;;;;;4.78;2.70;;;;;;;2.67;100.00;99356.13;688192;28;1162;-55
2021/12/04 00:23:40;;;;;;;4.95;2.70;;;;;;;2.78;100.00;99352.72;689386;28;3218;-55
2021/12/04 00:24:01;;;;;;;4.23;2.70;;;;;;;2.71;100.00;99357.88;687604;28;3731;-54
2021/12/04 00:24:22;;;;;;;3.90;2.63;;;;;;;2.85;100.00;99357.06;687163;28;1328;-55
2021/12/04 00:24:42;;;;;;;4.35;2.90;;;;;;;2.94;100.00;99359.72;687698;28;1278;-54
2021/12/04 00:25:07;;;;;;;4.57;2.80;;;;;;;2.88;99.60;99351.91;687923;28;4451;-53
2021/12/04 00:25:29;;;;;;;4.80;2.70;;;;;;;2.81;99.86;99357.91;687305;28;1452;-57
2021/12/04 00:25:50;;;;;;;5.03;2.70;;;;;;;2.80;99.57;99356.22;689275;28;1384;-54
2021/12/04 00:26:10;;;;;;;4.43;2.63;;;;;;;2.71;100.00;99352.72;689137;28;1869;-54
2021/12/04 00:26:30;;;;;;;4.20;2.85;;;;;;;2.67;100.00;99355.25;689616;28;3300;-55
2021/12/04 00:26:52;;;;;;;4.10;2.63;;;;;;;2.62;100.00;99360.38;690150;28;2373;-53
2021/12/04 00:27:12;;;;;;;4.05;2.50;;;;;;;2.72;100.00;99356.16;692750;28;1562;-54
2021/12/04 00:27:32;;;;;;;4.72;2.92;;;;;;;2.83;100.00;99357.06;692867;28;1400;-55
2021/12/04 00:27:54;;;;;;;5.27;2.87;;;;;;;2.77;100.00;99357.03;693352;28;1180;-57
2021/12/04 00:28:14;;;;;;;4.65;2.85;;;;;;;2.71;99.99;99355.28;692516;28;4821;-57
2021/12/04 00:28:35;;;;;;;4.60;2.70;;;;;;;2.67;100.00;99357.81;689512;28;1360;-55
2021/12/04 00:28:55;;;;;;;4.90;2.80;;;;;;;2.62;100.00;99352.66;689309;28;1275;-55
2021/12/04 00:29:16;;;;;;;4.50;2.80;;;;;;;2.59;100.00;99356.91;689502;28;2739;-55
2021/12/04 00:29:36;;;;;;;4.00;2.60;;;;;;;2.55;99.95;99361.22;685807;28;3431;-54
2021/12/04 00:29:58;;;;;;;4.23;2.67;;;;;;;2.53;100.00;99368.06;686743;28;1167;-55
2021/12/04 00:30:18;;;;;;;4.75;2.78;;;;;;;2.53;100.00;99362.91;686781;28;1281;-56
2021/12/04 00:30:39;;;;;;;5.68;2.78;;;;;;;2.66;100.00;99358.66;686433;28;1146;-54
2021/12/04 00:31:05;;;;;;;5.27;2.80;;;;;;;2.71;100.00;99357.88;686945;28;4317;-56
2021/12/04 00:31:26;;;;;;;5.43;3.17;;;;;;;2.71;100.00;99357.00;687945;28;1155;-55
2021/12/04 00:31:53;;;;;;;5.10;3.13;;;;;;;2.81;100.00;99358.78;689433;28;1397;-53
2021/12/04 00:32:32;;;;;;;4.70;2.97;;;;;;;2.90;100.00;99355.38;688397;28;3143;-60
2021/12/04 00:33:16;;;;;;;4.75;2.90;;;;;;;2.87;99.49;99352.78;691986;28;1112;-53
2021/12/04 00:33:37;;;;;;;5.60;3.20;;;;;;;2.75;99.22;99353.56;691142;28;1294;-57
2021/12/04 00:33:58;;;;;;;4.70;3.10;;;;;;;2.75;98.72;99348.41;692437;28;4569;-55
2021/12/04 00:34:22;;;;;;;5.38;3.20;;;;;;;2.70;99.80;99345.81;692489;28;1235;-54
2021/12/04 00:34:46;;;;;;;5.63;3.40;;;;;;;2.77;99.99;99346.72;691809;28;1261;-56
2021/12/04 00:35:34;;;;;;;4.90;3.20;;;;;;;2.81;100.00;99347.59;692485;28;3369;-53
2021/12/04 00:35:58;;;;;;;5.82;3.65;;;;;;;2.80;99.45;99345.88;690382;28;2141;-54
2021/12/04 00:37:01;;;;;;;5.38;3.45;;;;;;;2.71;99.15;99342.41;692070;28;1198;-55
2021/12/04 00:49:13;;;;;;;7.35;4.95;;;;;;;2.79;100.00;99339.84;691136;28;4417;-54
2021/12/04 00:49:34;;;;;;;6.72;4.97;;;;;;;2.85;99.78;99337.31;691175;28;3589;-53
2021/12/04 00:49:54;;;;;;;6.33;4.70;;;;;;;2.83;99.33;99338.16;690885;28;1322;-52
2021/12/04 00:50:14;;;;;;;7.03;5.10;;;;;;;2.82;99.99;99333.84;692540;28;1318;-53
2021/12/04 00:50:35;;;;;;;7.57;5.00;;;;;;;2.84;99.65;99337.31;691422;28;1282;-53
2021/12/04 00:50:56;;;;;;;7.40;4.85;;;;;;;2.73;99.78;99335.50;691322;28;1186;-57
2021/12/04 00:51:16;;;;;;;7.47;4.80;;;;;;;2.78;100.00;99332.09;692191;28;1552;-56
2021/12/04 00:51:40;;;;;;;7.30;5.20;;;;;;;2.75;99.87;99332.94;691262;28;1184;-55
2021/12/04 00:52:01;;;;;;;7.10;4.90;;;;;;;2.84;100.00;99339.88;691336;28;4477;-58
2021/12/04 00:52:21;;;;;;;7.50;4.88;;;;;;;2.78;100.00;99338.09;690741;28;2254;-54
2021/12/04 00:52:41;;;;;;;7.23;5.03;;;;;;;2.77;99.86;99335.50;691940;28;1173;-53
2021/12/04 00:53:02;;;;;;;7.70;5.13;;;;;;;2.68;99.66;99337.19;691997;28;1240;-54
2021/12/04 00:53:23;;;;;;;6.67;4.70;;;;;;;2.74;100.00;99328.63;691277;28;1459;-55
2021/12/04 00:53:43;;;;;;;7.23;5.17;;;;;;;2.75;100.00;99335.50;693124;28;1158;-53
2021/12/04 00:54:05;;;;;;;6.88;5.20;;;;;;;2.69;99.77;99330.34;689219;28;1338;-57
2021/12/04 00:54:28;;;;;;;7.63;5.00;;;;;;;2.68;100.00;99337.19;689806;28;1273;-52
2021/12/04 00:54:48;;;;;;;8.00;5.22;;;;;;;2.75;100.00;99332.06;688843;28;1949;-54
2021/12/04 00:55:08;;;;;;;7.10;5.30;;;;;;;2.73;100.00;99332.06;688524;28;4805;-56
2021/12/04 00:55:29;;;;;;;6.90;4.90;;;;;;;2.69;100.00;99330.34;689006;28;1503;-53
2021/12/04 00:55:49;;;;;;;6.65;4.90;;;;;;;2.66;100.00;99333.75;689735;28;1160;-54
2021/12/04 00:56:10;;;;;;;7.27;5.43;;;;;;;2.61;99.77;99332.84;690861;28;1202;-53
2021/12/04 00:56:30;;;;;;;6.87;5.47;;;;;;;2.59;99.90;99328.53;692338;28;1399;-54
2021/12/04 00:56:51;;;;;;;7.45;5.50;;;;;;;2.54;100.00;99324.19;691658;28;1313;-57
2021/12/04 00:57:13;;;;;;;7.18;5.15;;;;;;;2.64;100.00;99332.88;692625;28;1178;-53
2021/12/04 00:57:33;;;;;;;7.65;5.28;;;;;;;2.57;100.00;99325.94;691969;28;1131;-54
2021/12/04 00:57:54;;;;;;;8.20;5.47;;;;;;;2.66;100.00;99323.44;691915;28;3613;-54
2021/12/04 00:58:14;;;;;;;7.10;5.23;;;;;;;2.73;100.00;99334.66;691539;28;5168;-56
2021/12/04 00:58:35;;;;;;;7.47;5.30;;;;;;;2.75;100.00;99326.91;688991;28;1222;-53
2021/12/04 00:58:55;;;;;;;7.80;5.13;;;;;;;2.68;99.94;99321.69;689191;28;1317;-54
2021/12/04 00:59:16;;;;;;;7.47;5.30;;;;;;;2.63;99.93;99323.41;689996;28;1224;-55
2021/12/04 00:59:36;;;;;;;7.33;5.30;;;;;;;2.59;100.00;99321.66;689783;28;1134;-56
2021/12/04 00:59:57;;;;;;;7.00;5.17;;;;;;;2.55;100.00;99322.50;689197;28;1299;-56
2021/12/04 01:00:17;;;;;;;7.50;5.30;;;;;;;2.57;100.00;99318.22;689273;28;1246;-57
2021/12/04 01:00:39;;;;;;;6.97;5.43;;;;;;;2.54;100.00;99319.03;691214;28;3479;-55
2021/12/04 01:01:00;;;;;;;7.57;5.55;;;;;;;2.51;100.00;99319.03;690847;28;4567;-53
2021/12/04 01:01:20;;;;;;;7.63;5.35;;;;;;;2.55;100.00;99322.50;691687;28;1062;-55
2021/12/04 01:01:42;;;;;;;7.47;5.30;;;;;;;2.56;100.00;99321.63;691895;28;1373;-56
2021/12/04 01:02:02;;;;;;;7.07;5.07;;;;;;;2.64;100.00;99319.09;692118;28;1147;-54
2021/12/04 01:02:23;;;;;;;6.85;5.05;;;;;;;2.65;100.00;99315.69;689249;28;1199;-54
2021/12/04 01:02:43;;;;;;;7.70;5.10;;;;;;;2.63;100.00;99322.53;686787;28;1191;-54
2021/12/04 01:03:04;;;;;;;7.47;5.10;;;;;;;2.65;100.00;99321.69;686023;28;1487;-57
2021/12/04 01:03:24;;;;;;;8.70;5.10;;;;;;;2.64;100.00;99313.94;686624;28;1842;-54
2021/12/04 01:03:45;;;;;;;8.85;5.15;;;;;;;2.71;100.00;99315.69;686458;28;1311;-52
2021/12/04 01:04:18;;;;;;;7.90;5.30;;;;;;;2.84;100.00;99312.34;685535;28;4586;-52
2021/12/04 01:04:39;;;;;;;7.55;4.97;;;;;;;2.84;99.59;99320.09;692052;28;1504;-54
2021/12/04 01:04:59;;;;;;;6.60;5.23;;;;;;;2.87;99.83;99314.94;691875;28;1202;-55
2021/12/04 01:05:19;;;;;;;7.60;5.13;;;;;;;2.82;99.38;99314.03;692917;28;1249;-52
2021/12/04 01:05:40;;;;;;;8.80;5.10;;;;;;;2.78;99.43;99316.59;692193;28;1264;-57
2021/12/04 01:06:01;;;;;;;8.00;5.20;;;;;;;2.67;100.00;99316.53;692700;28;1104;-55
2021/12/04 01:06:21;;;;;;;7.95;4.90;;;;;;;2.61;100.00;99319.09;691408;28;2245;-57
2021/12/04 01:06:42;;;;;;;7.63;5.30;;;;;;;2.53;100.00;99307.03;691910;28;1300;-53
2021/12/04 01:07:02;;;;;;;7.78;5.20;;;;;;;2.65;100.00;99315.69;690725;28;4607;-53
2021/12/04 01:07:24;;;;;;;7.23;5.33;;;;;;;2.76;100.00;99313.16;689048;28;1301;-52
2021/12/04 01:07:45;;;;;;;8.10;5.30;;;;;;;2.71;100.00;99307.97;689845;28;1405;-53
2021/12/04 01:08:05;;;;;;;7.43;5.17;;;;;;;2.67;100.00;99312.25;689330;28;3023;-56
2021/12/04 01:08:26;;;;;;;7.85;5.10;;;;;;;2.63;99.91;99312.22;689468;28;1258;-54
2021/12/04 01:08:46;;;;;;;7.93;5.27;;;;;;;2.60;99.82;99317.38;689388;28;1461;-57
2021/12/04 01:09:09;;;;;;;7.13;5.18;;;;;;;2.54;100.00;99308.72;689192;28;3543;-55
2021/12/04 01:09:29;;;;;;;7.38;5.18;;;;;;;2.59;100.00;99308.78;691304;28;1231;-56
2021/12/04 01:09:50;;;;;;;7.10;5.37;;;;;;;2.57;100.00;99313.03;692231;28;1160;-54
2021/12/04 01:10:11;;;;;;;7.03;5.43;;;;;;;2.54;100.00;99313.88;691215;28;4457;-54
2021/12/04 01:10:31;;;;;;;7.03;5.27;;;;;;;2.52;100.00;99312.16;692601;28;1159;-55
2021/12/04 01:10:51;;;;;;;7.07;5.15;;;;;;;2.55;100.00;99307.03;691965;28;1128;-54
2021/12/04 01:11:12;;;;;;;7.17;5.27;;;;;;;2.52;100.00;99306.97;691650;28;1315;-54
2021/12/04 01:11:32;;;;;;;7.03;5.10;;;;;;;2.47;100.00;99303.53;692046;28;1124;-57
2021/12/04 01:11:54;;;;;;;6.73;5.00;;;;;;;2.59;100.00;99307.88;689251;28;3228;-54
2021/12/04 01:12:14;;;;;;;7.28;5.22;;;;;;;2.61;100.00;99308.78;689505;28;1080;-54
2021/12/04 01:12:35;;;;;;;8.37;5.20;;;;;;;2.65;100.00;99308.78;688909;28;1357;-55
2021/12/04 01:13:00;;;;;;;8.53;5.00;;;;;;;2.71;100.00;99305.38;688965;28;4502;-55
2021/12/04 01:13:20;;;;;;;6.70;4.93;;;;;;;2.70;100.00;99308.81;689138;28;1357;-56
2021/12/04 01:13:41;;;;;;;7.68;5.15;;;;;;;2.64;100.00;99308.78;691186;28;1214;-60
2021/12/04 01:14:02;;;;;;;7.47;5.00;;;;;;;2.60;100.00;99313.06;692483;28;1306;-53
2021/12/04 01:14:29;;;;;;;8.73;5.13;;;;;;;2.73;100.00;99314.84;690942;28;1176;-60
2021/12/04 01:14:49;;;;;;;8.52;5.07;;;;;;;2.75;100.00;99303.69;691157;28;3547;-57
2021/12/04 01:15:10;;;;;;;7.77;5.00;;;;;;;2.78;99.86;99314.03;691652;28;1919;-53
2021/12/04 01:15:30;;;;;;;9.05;5.50;;;;;;;2.71;99.66;99316.59;690762;28;1143;-53
2021/12/04 01:15:51;;;;;;;8.00;5.43;;;;;;;2.63;100.00;99313.09;691749;28;1386;-57
2021/12/04 01:16:11;;;;;;;6.95;5.20;;;;;;;2.57;100.00;99307.88;691408;28;4414;-53
2021/12/04 01:16:32;;;;;;;7.30;5.10;;;;;;;2.54;100.00;99310.44;692411;28;1370;-53
2021/12/04 01:16:54;;;;;;;7.68;5.40;;;;;;;2.53;100.00;99307.03;691619;28;1099;-54
2021/12/04 01:17:14;;;;;;;7.40;5.43;;;;;;;2.60;100.00;99305.31;689363;28;1250;-57
2021/12/04 01:17:34;;;;;;;8.50;5.53;;;;;;;2.59;100.00;99307.88;688473;28;3441;-57
2021/12/04 01:17:55;;;;;;;8.45;5.70;;;;;;;2.53;100.00;99306.13;688962;28;1342;-55
2021/12/04 01:18:15;;;;;;;8.20;5.40;;;;;;;2.47;100.00;99306.13;688950;28;1294;-57
2021/12/04 01:18:36;;;;;;;8.10;5.22;;;;;;;2.45;100.00;99307.81;689690;28;1175;-57
2021/12/04 01:18:56;;;;;;;7.57;5.33;;;;;;;2.53;100.00;99311.31;689339;28;4600;-53
2021/12/04 01:19:19;;;;;;;7.95;5.30;;;;;;;2.53;100.00;99304.44;691723;28;1206;-54
2021/12/04 01:19:39;;;;;;;7.75;5.07;;;;;;;2.65;100.00;99307.94;691839;28;1881;-54
2021/12/04 01:19:59;;;;;;;7.32;5.15;;;;;;;2.63;100.00;99301.91;693092;28;1697;-54
2021/12/04 01:20:20;;;;;;;7.57;5.60;;;;;;;2.65;100.00;99305.34;692197;28;3085;-55
2021/12/04 01:20:40;;;;;;;7.35;5.40;;;;;;;2.69;100.00;99307.97;692573;28;3727;-54
2021/12/04 01:21:01;;;;;;;7.53;5.00;;;;;;;2.82;100.00;99308.03;691722;28;1260;-54
2021/12/04 01:21:21;;;;;;;7.57;4.97;;;;;;;2.88;100.00;99305.44;692190;28;1315;-54
2021/12/04 01:21:42;;;;;;;7.10;4.70;;;;;;;2.93;100.00;99301.19;692451;28;1201;-53
2021/12/04 01:22:04;;;;;;;7.53;4.70;;;;;;;2.96;99.75;99303.78;689073;28;5064;-55
2021/12/04 01:22:26;;;;;;;7.38;5.00;;;;;;;2.97;98.98;99302.06;689593;28;1246;-54
2021/12/04 01:22:47;;;;;;;7.72;5.35;;;;;;;3.01;99.31;99303.81;689408;28;1241;-56
2021/12/04 01:23:07;;;;;;;8.50;5.13;;;;;;;2.93;99.15;99296.03;689797;28;3245;-55
2021/12/04 01:23:27;;;;;;;6.47;4.60;;;;;;;2.99;98.99;99306.41;688599;28;3538;-57
2021/12/04 01:23:48;;;;;;;7.70;4.60;;;;;;;2.97;98.91;99297.75;688970;28;1048;-53
2021/12/04 01:24:08;;;;;;;7.10;4.80;;;;;;;2.93;99.20;99301.19;692340;28;1308;-56
2021/12/04 01:24:29;;;;;;;6.60;5.00;;;;;;;2.91;98.70;99302.91;688949;28;1198;-55
2021/12/04 01:24:49;;;;;;;6.97;5.18;;;;;;;2.94;98.90;99297.75;689418;28;1215;-56
2021/12/04 01:25:10;;;;;;;7.00;5.00;;;;;;;2.89;99.02;99299.44;689271;28;4395;-56
2021/12/04 01:25:31;;;;;;;6.70;4.88;;;;;;;2.85;99.27;99292.53;691807;28;1230;-54
2021/12/04 01:25:51;;;;;;;7.15;5.00;;;;;;;2.91;99.43;99302.91;690525;28;1135;-53
2021/12/04 01:26:11;;;;;;;7.43;5.00;;;;;;;2.83;99.37;99300.28;691133;28;3733;-55
2021/12/04 01:26:33;;;;;;;8.32;5.40;;;;;;;2.72;99.90;99289.91;694179;28;1821;-53
2021/12/04 01:26:54;;;;;;;7.32;5.45;;;;;;;2.71;100.00;99295.06;694206;28;1177;-55
2021/12/04 01:27:14;;;;;;;6.88;5.20;;;;;;;2.66;100.00;99297.63;694330;28;1183;-54
2021/12/04 01:27:39;;;;;;;6.90;5.05;;;;;;;2.62;100.00;99295.88;692533;28;1373;-56
2021/12/04 01:27:59;;;;;;;7.65;5.35;;;;;;;2.58;100.00;99295.88;690335;28;4584;-55
2021/12/04 01:28:22;;;;;;;7.10;5.05;;;;;;;2.66;100.00;99291.59;692176;28;1245;-55
2021/12/04 01:28:42;;;;;;;7.53;5.50;;;;;;;2.65;100.00;99292.47;691618;28;1231;-52
2021/12/04 01:29:03;;;;;;;7.37;5.10;;;;;;;2.60;100.00;99299.31;692275;28;3587;-54
2021/12/04 01:29:24;;;;;;;6.75;4.93;;;;;;;2.61;100.00;99298.47;691140;28;1217;-54
2021/12/04 01:29:44;;;;;;;6.80;5.03;;;;;;;2.66;100.00;99297.63;691252;28;1146;-53
2021/12/04 01:30:07;;;;;;;6.70;5.07;;;;;;;2.62;100.00;99298.47;691841;28;1233;-53
2021/12/04 01:30:27;;;;;;;6.85;5.00;;;;;;;2.68;100.00;99295.91;692294;28;1369;-54
2021/12/04 01:30:48;;;;;;;7.45;5.10;;;;;;;2.72;100.00;99294.22;692128;28;1321;-56
2021/12/04 01:31:08;;;;;;;7.70;5.17;;;;;;;2.68;100.00;99295.91;691501;28;4550;-55
2021/12/04 01:31:28;;;;;;;7.17;5.03;;;;;;;2.64;99.95;99294.16;692326;28;1033;-56
2021/12/04 01:31:49;;;;;;;6.65;5.00;;;;;;;2.63;100.00;99295.03;692407;28;3303;-54
2021/12/04 01:32:10;;;;;;;6.60;4.97;;;;;;;2.57;100.00;99300.16;691586;28;1251;-57
2021/12/04 01:32:30;;;;;;;7.33;5.00;;;;;;;2.61;100.00;99296.72;691395;28;1232;-53
2021/12/04 01:32:50;;;;;;;7.32;5.07;;;;;;;2.59;100.00;99295.88;692304;28;1285;-57
2021/12/04 01:33:11;;;;;;;6.80;5.10;;;;;;;2.58;100.00;99295.88;685701;28;1287;-57
2021/12/04 01:33:32;;;;;;;6.93;4.95;;;;;;;2.61;100.00;99296.72;681950;28;1129;-54
2021/12/04 01:33:52;;;;;;;6.73;4.90;;;;;;;2.68;100.00;99297.63;681273;28;1113;-54
2021/12/04 01:34:13;;;;;;;6.57;4.80;;;;;;;2.73;100.00;99290.78;681070;28;4434;-55
2021/12/04 01:34:34;;;;;;;6.35;4.80;;;;;;;2.75;99.94;99293.38;681828;28;3194;-54
2021/12/04 01:34:55;;;;;;;6.65;4.90;;;;;;;2.84;99.96;99296.84;681806;28;1977;-55
2021/12/04 01:35:15;;;;;;;6.85;5.00;;;;;;;2.90;99.59;99296.88;686938;28;1268;-53
2021/12/04 01:35:36;;;;;;;7.00;4.90;;;;;;;2.89;99.94;99296.88;692867;28;969;-53
2021/12/04 01:35:56;;;;;;;7.70;5.03;;;;;;;2.94;99.10;99289.16;693112;28;1281;-57
2021/12/04 01:36:16;;;;;;;7.33;5.20;;;;;;;2.96;99.29;99292.59;691916;28;1305;-57
2021/12/04 01:36:37;;;;;;;8.35;5.13;;;;;;;2.99;99.54;99288.31;691857;28;1063;-56
2021/12/04 01:36:57;;;;;;;7.57;4.87;;;;;;;2.97;98.77;99296.91;691562;28;4518;-58
2021/12/04 01:37:18;;;;;;;6.90;4.95;;;;;;;2.92;99.27;99298.59;691174;28;1953;-57
2021/12/04 01:37:38;;;;;;;7.03;5.07;;;;;;;2.92;99.21;99291.72;691640;28;3426;-54
2021/12/04 01:37:58;;;;;;;8.02;5.05;;;;;;;2.87;99.62;99288.25;692004;28;1106;-53
2021/12/04 01:38:19;;;;;;;6.60;4.57;;;;;;;2.89;98.97;99287.41;691954;28;1328;-54
2021/12/04 01:38:40;;;;;;;7.22;4.53;;;;;;;2.90;99.11;99285.69;692289;28;1258;-55
2021/12/04 01:39:02;;;;;;;7.05;4.57;;;;;;;2.86;99.47;99283.94;693379;28;1218;-54
2021/12/04 01:39:23;;;;;;;8.15;4.78;;;;;;;2.87;99.91;99288.25;691197;28;1116;-54
2021/12/04 01:39:43;;;;;;;7.72;4.85;;;;;;;2.86;99.38;99283.94;691166;28;1424;-56
2021/12/04 01:40:05;;;;;;;6.07;4.80;;;;;;;2.79;99.72;99288.22;691216;28;4548;-55
2021/12/04 01:40:27;;;;;;;6.30;4.70;;;;;;;2.83;100.00;99284.78;691190;28;3476;-55
2021/12/04 01:40:48;;;;;;;6.78;4.72;;;;;;;2.87;99.78;99285.69;691702;28;1321;-55
2021/12/04 01:41:09;;;;;;;7.10;4.70;;;;;;;2.87;99.04;99286.53;691150;28;1273;-53
2021/12/04 01:41:29;;;;;;;6.20;4.50;;;;;;;2.82;98.78;99277.06;692139;28;1165;-54
2021/12/04 01:41:50;;;;;;;6.93;4.72;;;;;;;2.81;99.52;99286.53;692027;28;1134;-54
2021/12/04 01:42:10;;;;;;;7.17;4.70;;;;;;;2.81;99.75;99283.06;691954;28;1214;-55
2021/12/04 01:42:34;;;;;;;6.53;4.78;;;;;;;2.92;99.48;99278.81;692613;28;1217;-52
2021/12/04 01:42:55;;;;;;;6.75;4.85;;;;;;;2.84;98.85;99277.94;691699;28;4474;-52
2021/12/04 01:43:16;;;;;;;6.40;4.60;;;;;;;2.92;99.24;99283.09;691943;28;3659;-54
2021/12/04 01:43:36;;;;;;;7.10;4.87;;;;;;;2.91;98.85;99279.69;691251;28;1048;-54
2021/12/04 01:43:58;;;;;;;7.00;4.83;;;;;;;2.89;98.82;99277.09;692131;28;1285;-56
2021/12/04 01:44:19;;;;;;;6.28;4.90;;;;;;;2.91;99.32;99274.50;693168;28;1167;-54
2021/12/04 01:44:40;;;;;;;6.68;4.80;;;;;;;2.94;99.12;99277.09;690953;28;1269;-53
2021/12/04 01:45:01;;;;;;;6.90;4.73;;;;;;;2.91;98.96;99269.34;692298;28;1261;-54
2021/12/04 01:45:21;;;;;;;7.18;4.57;;;;;;;2.95;99.30;99281.41;690881;28;4115;-56
2021/12/04 01:45:42;;;;;;;6.85;4.50;;;;;;;2.94;98.66;99271.09;691004;28;1202;-57
2021/12/04 01:46:03;;;;;;;6.37;4.70;;;;;;;2.87;98.51;99272.78;690979;28;5286;-53
2021/12/04 01:46:23;;;;;;;6.53;4.45;;;;;;;2.93;99.16;99271.94;691343;28;1280;-53
2021/12/04 01:46:44;;;;;;;6.50;4.60;;;;;;;2.97;99.25;99278.84;692121;28;1427;-57
2021/12/04 01:47:15;;;;;;;6.20;4.70;;;;;;;2.88;98.67;99272.78;692968;28;1253;-56
2021/12/04 01:47:35;;;;;;;6.40;5.05;;;;;;;2.82;99.18;99284.78;691944;28;1204;-56
2021/12/04 01:48:00;;;;;;;6.60;5.10;;;;;;;2.75;99.52;99277.88;693018;28;1261;-54
2021/12/04 01:48:21;;;;;;;7.68;5.00;;;;;;;2.69;98.83;99271.84;690956;28;1207;-56
2021/12/04 01:48:42;;;;;;;7.20;5.03;;;;;;;2.76;99.76;99277.03;691324;28;1759;-52
2021/12/04 01:49:03;;;;;;;6.32;4.90;;;;;;;2.77;99.20;99269.28;691493;28;4647;-56
2021/12/04 01:49:24;;;;;;;7.30;5.03;;;;;;;2.79;99.69;99279.63;691475;28;1378;-53
2021/12/04 01:49:48;;;;;;;6.90;4.75;;;;;;;2.72;99.88;99281.31;692025;28;1254;-57
2021/12/04 01:50:09;;;;;;;6.95;4.90;;;;;;;2.75;100.00;99268.41;691518;28;1149;-54
2021/12/04 01:50:32;;;;;;;8.10;4.85;;;;;;;2.87;100.00;99270.19;691936;28;1371;-54
2021/12/04 01:50:52;;;;;;;8.35;4.82;;;;;;;2.85;99.45;99277.06;691639;28;1321;-54
2021/12/04 01:51:13;;;;;;;7.05;4.70;;;;;;;2.84;99.17;99272.78;689336;28;1309;-52
2021/12/04 01:51:33;;;;;;;6.83;5.03;;;;;;;2.80;99.68;99273.63;689569;28;4153;-56
2021/12/04 01:51:53;;;;;;;6.72;4.95;;;;;;;2.75;99.61;99272.72;688813;28;3715;-56
2021/12/04 01:52:17;;;;;;;6.67;4.70;;;;;;;2.84;100.00;99273.63;688692;28;5184;-55
2021/12/04 01:52:38;;;;;;;7.07;4.85;;;;;;;2.79;99.30;99266.72;686538;28;1227;-54
2021/12/04 01:53:00;;;;;;;7.22;5.10;;;;;;;2.83;99.70;99268.47;686611;28;1334;-54
2021/12/04 01:53:22;;;;;;;6.82;4.82;;;;;;;2.78;99.50;99270.16;689051;28;1607;-56
2021/12/04 01:53:43;;;;;;;6.45;4.63;;;;;;;2.91;99.61;99271.94;685814;28;1243;-56
2021/12/04 01:54:04;;;;;;;6.53;4.65;;;;;;;2.94;99.83;99274.53;686055;28;1207;-57
2021/12/04 01:54:24;;;;;;;6.75;4.82;;;;;;;3.01;99.07;99273.69;687281;28;3112;-52
2021/12/04 01:54:46;;;;;;;7.70;4.77;;;;;;;2.98;98.56;99271.09;689499;28;1238;-53
2021/12/04 01:55:08;;;;;;;7.68;4.82;;;;;;;2.96;99.52;99277.09;688633;28;5551;-56
2021/12/04 01:55:32;;;;;;;7.88;5.13;;;;;;;2.93;98.79;99270.22;689487;28;1483;-53
2021/12/04 01:55:55;;;;;;;7.68;4.78;;;;;;;2.91;98.71;99271.94;691032;28;1230;-58
2021/12/04 01:56:17;;;;;;;6.88;4.80;;;;;;;2.85;98.93;99269.31;692189;28;1328;-56
2021/12/04 01:56:37;;;;;;;5.95;4.55;;;;;;;2.80;99.24;99273.63;691663;28;1243;-55
2021/12/04 01:56:58;;;;;;;7.40;4.85;;;;;;;2.75;99.88;99276.16;692426;28;1202;-53